sensor_id;sensor_type;location;lat;lon;timestamp;P1;durP1;ratioP1;P2;durP2;ratioP2
7899;SDS011;3995;50.856;4.404;2023-07-31T00:01:39;12.00;;;5.10;;
7899;SDS011;3995;50.856;4.404;2023-07-31T00:04:06;10.47;;;4.60;;
7899;SDS011;3995;50.856;4.404;2023-07-31T00:06:34;11.20;;;4.23;;
7899;SDS011;3995;50.856;4.404;2023-07-31T00:09:02;13.83;;;4.80;;
7899;SDS011;3995;50.856;4.404;2023-07-31T00:11:31;9.93;;;4.40;;
7899;SDS011;3995;50.856;4.404;2023-07-31T00:13:59;13.80;;;4.53;;
7899;SDS011;3995;50.856;4.404;2023-07-31T00:16:27;9.23;;;4.30;;
7899;SDS011;3995;50.856;4.404;2023-07-31T00:18:54;11.00;;;4.50;;
7899;SDS011;3995;50.856;4.404;2023-07-31T00:21:21;7.80;;;4.77;;
7899;SDS011;3995;50.856;4.404;2023-07-31T00:23:49;9.73;;;5.40;;
7899;SDS011;3995;50.856;4.404;2023-07-31T00:26:16;12.43;;;5.00;;
7899;SDS011;3995;50.856;4.404;2023-07-31T00:28:46;8.07;;;4.20;;
7899;SDS011;3995;50.856;4.404;2023-07-31T00:31:13;8.93;;;3.80;;
7899;SDS011;3995;50.856;4.404;2023-07-31T00:33:41;10.10;;;4.83;;
7899;SDS011;3995;50.856;4.404;2023-07-31T00:36:09;13.73;;;5.17;;
7899;SDS011;3995;50.856;4.404;2023-07-31T00:38:36;10.23;;;4.60;;
7899;SDS011;3995;50.856;4.404;2023-07-31T00:41:04;9.33;;;4.80;;
7899;SDS011;3995;50.856;4.404;2023-07-31T00:43:31;9.23;;;4.60;;
7899;SDS011;3995;50.856;4.404;2023-07-31T00:46:00;12.57;;;5.13;;
7899;SDS011;3995;50.856;4.404;2023-07-31T00:48:28;11.73;;;5.27;;
7899;SDS011;3995;50.856;4.404;2023-07-31T00:50:55;7.60;;;4.17;;
7899;SDS011;3995;50.856;4.404;2023-07-31T00:53:22;11.20;;;4.47;;
7899;SDS011;3995;50.856;4.404;2023-07-31T00:55:51;11.60;;;5.17;;
7899;SDS011;3995;50.856;4.404;2023-07-31T00:58:19;17.17;;;5.80;;
7899;SDS011;3995;50.856;4.404;2023-07-31T01:00:46;9.20;;;4.50;;
7899;SDS011;3995;50.856;4.404;2023-07-31T01:03:16;12.03;;;4.27;;
7899;SDS011;3995;50.856;4.404;2023-07-31T01:05:46;6.50;;;4.03;;
7899;SDS011;3995;50.856;4.404;2023-07-31T01:08:18;7.47;;;3.67;;
7899;SDS011;3995;50.856;4.404;2023-07-31T01:10:53;14.20;;;4.73;;
7899;SDS011;3995;50.856;4.404;2023-07-31T01:13:25;10.93;;;4.80;;
7899;SDS011;3995;50.856;4.404;2023-07-31T01:15:53;9.77;;;4.00;;
7899;SDS011;3995;50.856;4.404;2023-07-31T01:18:23;13.70;;;5.07;;
7899;SDS011;3995;50.856;4.404;2023-07-31T01:20:57;10.63;;;4.30;;
7899;SDS011;3995;50.856;4.404;2023-07-31T01:23:35;9.30;;;4.00;;
7899;SDS011;3995;50.856;4.404;2023-07-31T01:26:20;8.43;;;3.70;;
7899;SDS011;3995;50.856;4.404;2023-07-31T01:28:51;11.27;;;4.37;;
7899;SDS011;3995;50.856;4.404;2023-07-31T01:31:23;7.23;;;4.20;;
7899;SDS011;3995;50.856;4.404;2023-07-31T01:33:53;7.67;;;4.50;;
7899;SDS011;3995;50.856;4.404;2023-07-31T01:36:24;9.90;;;5.37;;
7899;SDS011;3995;50.856;4.404;2023-07-31T01:38:52;8.07;;;4.50;;
7899;SDS011;3995;50.856;4.404;2023-07-31T01:41:26;9.83;;;3.60;;
7899;SDS011;3995;50.856;4.404;2023-07-31T01:43:54;10.33;;;4.47;;
7899;SDS011;3995;50.856;4.404;2023-07-31T01:46:21;6.40;;;4.10;;
7899;SDS011;3995;50.856;4.404;2023-07-31T01:48:49;6.60;;;3.90;;
7899;SDS011;3995;50.856;4.404;2023-07-31T01:51:18;17.13;;;4.83;;
7899;SDS011;3995;50.856;4.404;2023-07-31T01:53:46;13.10;;;5.67;;
7899;SDS011;3995;50.856;4.404;2023-07-31T01:56:13;7.83;;;4.47;;
7899;SDS011;3995;50.856;4.404;2023-07-31T01:58:42;10.03;;;4.90;;
7899;SDS011;3995;50.856;4.404;2023-07-31T02:01:09;18.70;;;5.03;;
7899;SDS011;3995;50.856;4.404;2023-07-31T02:03:36;9.17;;;4.70;;
7899;SDS011;3995;50.856;4.404;2023-07-31T02:06:04;10.00;;;5.23;;
7899;SDS011;3995;50.856;4.404;2023-07-31T02:08:31;7.80;;;4.63;;
7899;SDS011;3995;50.856;4.404;2023-07-31T02:10:59;8.57;;;5.00;;
7899;SDS011;3995;50.856;4.404;2023-07-31T02:13:26;10.73;;;4.90;;
7899;SDS011;3995;50.856;4.404;2023-07-31T02:15:56;11.43;;;4.67;;
7899;SDS011;3995;50.856;4.404;2023-07-31T02:18:23;7.63;;;4.73;;
7899;SDS011;3995;50.856;4.404;2023-07-31T02:20:50;8.00;;;4.40;;
7899;SDS011;3995;50.856;4.404;2023-07-31T02:23:18;8.10;;;4.40;;
7899;SDS011;3995;50.856;4.404;2023-07-31T02:25:46;8.90;;;4.03;;
7899;SDS011;3995;50.856;4.404;2023-07-31T02:28:13;5.97;;;4.27;;
7899;SDS011;3995;50.856;4.404;2023-07-31T02:30:43;10.33;;;4.30;;
7899;SDS011;3995;50.856;4.404;2023-07-31T02:33:13;9.70;;;5.13;;
7899;SDS011;3995;50.856;4.404;2023-07-31T02:35:41;8.00;;;4.00;;
7899;SDS011;3995;50.856;4.404;2023-07-31T02:38:08;8.30;;;3.77;;
7899;SDS011;3995;50.856;4.404;2023-07-31T02:40:36;6.77;;;3.73;;
7899;SDS011;3995;50.856;4.404;2023-07-31T02:43:03;9.57;;;4.00;;
7899;SDS011;3995;50.856;4.404;2023-07-31T02:45:30;8.10;;;3.93;;
7899;SDS011;3995;50.856;4.404;2023-07-31T02:47:59;5.53;;;3.77;;
7899;SDS011;3995;50.856;4.404;2023-07-31T02:50:28;5.30;;;3.37;;
7899;SDS011;3995;50.856;4.404;2023-07-31T02:52:55;8.03;;;3.90;;
7899;SDS011;3995;50.856;4.404;2023-07-31T02:55:22;6.63;;;3.60;;
7899;SDS011;3995;50.856;4.404;2023-07-31T02:57:50;6.77;;;3.50;;
7899;SDS011;3995;50.856;4.404;2023-07-31T03:00:18;7.67;;;3.40;;
7899;SDS011;3995;50.856;4.404;2023-07-31T03:02:46;8.43;;;3.50;;
7899;SDS011;3995;50.856;4.404;2023-07-31T03:05:13;9.33;;;3.10;;
7899;SDS011;3995;50.856;4.404;2023-07-31T03:07:42;5.77;;;3.50;;
7899;SDS011;3995;50.856;4.404;2023-07-31T03:10:09;3.77;;;2.73;;
7899;SDS011;3995;50.856;4.404;2023-07-31T03:12:37;4.80;;;3.20;;
7899;SDS011;3995;50.856;4.404;2023-07-31T03:15:05;6.13;;;3.13;;
7899;SDS011;3995;50.856;4.404;2023-07-31T03:17:34;7.57;;;2.83;;
7899;SDS011;3995;50.856;4.404;2023-07-31T03:20:01;7.57;;;4.03;;
7899;SDS011;3995;50.856;4.404;2023-07-31T03:22:30;7.20;;;3.90;;
7899;SDS011;3995;50.856;4.404;2023-07-31T03:24:59;6.63;;;3.80;;
7899;SDS011;3995;50.856;4.404;2023-07-31T03:27:26;13.40;;;3.33;;
7899;SDS011;3995;50.856;4.404;2023-07-31T03:29:54;6.17;;;3.33;;
7899;SDS011;3995;50.856;4.404;2023-07-31T03:32:21;5.57;;;3.47;;
7899;SDS011;3995;50.856;4.404;2023-07-31T03:34:49;7.63;;;4.13;;
7899;SDS011;3995;50.856;4.404;2023-07-31T03:37:16;5.20;;;3.50;;
7899;SDS011;3995;50.856;4.404;2023-07-31T03:39:44;4.40;;;3.33;;
7899;SDS011;3995;50.856;4.404;2023-07-31T03:42:12;6.87;;;3.50;;
7899;SDS011;3995;50.856;4.404;2023-07-31T03:44:39;4.77;;;3.33;;
7899;SDS011;3995;50.856;4.404;2023-07-31T03:47:07;7.83;;;3.83;;
7899;SDS011;3995;50.856;4.404;2023-07-31T03:49:34;7.30;;;3.00;;
7899;SDS011;3995;50.856;4.404;2023-07-31T03:52:01;5.37;;;3.70;;
7899;SDS011;3995;50.856;4.404;2023-07-31T03:54:29;5.93;;;3.40;;
7899;SDS011;3995;50.856;4.404;2023-07-31T03:56:57;5.60;;;3.27;;
7899;SDS011;3995;50.856;4.404;2023-07-31T03:59:26;9.03;;;4.13;;
7899;SDS011;3995;50.856;4.404;2023-07-31T04:01:53;6.53;;;3.70;;
7899;SDS011;3995;50.856;4.404;2023-07-31T04:04:20;5.60;;;3.13;;
7899;SDS011;3995;50.856;4.404;2023-07-31T04:06:48;5.50;;;2.90;;
7899;SDS011;3995;50.856;4.404;2023-07-31T04:09:15;5.87;;;3.23;;
7899;SDS011;3995;50.856;4.404;2023-07-31T04:11:42;6.50;;;3.40;;
7899;SDS011;3995;50.856;4.404;2023-07-31T04:14:10;13.73;;;3.53;;
7899;SDS011;3995;50.856;4.404;2023-07-31T04:16:39;6.43;;;3.93;;
7899;SDS011;3995;50.856;4.404;2023-07-31T04:19:06;5.43;;;3.03;;
7899;SDS011;3995;50.856;4.404;2023-07-31T04:21:34;6.63;;;3.40;;
7899;SDS011;3995;50.856;4.404;2023-07-31T04:24:01;5.70;;;3.33;;
7899;SDS011;3995;50.856;4.404;2023-07-31T04:26:29;4.47;;;3.00;;
7899;SDS011;3995;50.856;4.404;2023-07-31T04:28:56;11.10;;;3.97;;
7899;SDS011;3995;50.856;4.404;2023-07-31T04:31:24;5.40;;;3.63;;
7899;SDS011;3995;50.856;4.404;2023-07-31T04:33:52;8.90;;;4.30;;
7899;SDS011;3995;50.856;4.404;2023-07-31T04:36:19;5.60;;;3.17;;
7899;SDS011;3995;50.856;4.404;2023-07-31T04:38:47;6.60;;;3.47;;
7899;SDS011;3995;50.856;4.404;2023-07-31T04:41:14;8.80;;;3.97;;
7899;SDS011;3995;50.856;4.404;2023-07-31T04:43:42;6.07;;;3.40;;
7899;SDS011;3995;50.856;4.404;2023-07-31T04:46:09;6.67;;;3.47;;
7899;SDS011;3995;50.856;4.404;2023-07-31T04:48:37;8.00;;;4.07;;
7899;SDS011;3995;50.856;4.404;2023-07-31T04:51:06;8.03;;;3.53;;
7899;SDS011;3995;50.856;4.404;2023-07-31T04:53:34;6.60;;;3.03;;
7899;SDS011;3995;50.856;4.404;2023-07-31T04:56:02;5.47;;;3.47;;
7899;SDS011;3995;50.856;4.404;2023-07-31T04:58:30;6.70;;;3.10;;
7899;SDS011;3995;50.856;4.404;2023-07-31T05:00:57;4.60;;;2.87;;
7899;SDS011;3995;50.856;4.404;2023-07-31T05:03:24;6.13;;;3.60;;
7899;SDS011;3995;50.856;4.404;2023-07-31T05:05:52;6.90;;;3.07;;
7899;SDS011;3995;50.856;4.404;2023-07-31T05:08:21;7.27;;;3.47;;
7899;SDS011;3995;50.856;4.404;2023-07-31T05:10:48;5.17;;;2.90;;
7899;SDS011;3995;50.856;4.404;2023-07-31T05:13:16;5.20;;;3.00;;
7899;SDS011;3995;50.856;4.404;2023-07-31T05:15:43;5.50;;;3.17;;
7899;SDS011;3995;50.856;4.404;2023-07-31T05:18:11;4.50;;;3.20;;
7899;SDS011;3995;50.856;4.404;2023-07-31T05:20:39;6.10;;;2.53;;
7899;SDS011;3995;50.856;4.404;2023-07-31T05:23:06;6.20;;;3.13;;
7899;SDS011;3995;50.856;4.404;2023-07-31T05:25:35;4.87;;;3.40;;
7899;SDS011;3995;50.856;4.404;2023-07-31T05:28:02;3.83;;;2.97;;
7899;SDS011;3995;50.856;4.404;2023-07-31T05:30:30;6.13;;;2.97;;
7899;SDS011;3995;50.856;4.404;2023-07-31T05:32:58;9.10;;;3.27;;
7899;SDS011;3995;50.856;4.404;2023-07-31T05:35:25;9.03;;;3.13;;
7899;SDS011;3995;50.856;4.404;2023-07-31T05:37:53;7.23;;;3.70;;
7899;SDS011;3995;50.856;4.404;2023-07-31T05:40:20;5.10;;;3.40;;
7899;SDS011;3995;50.856;4.404;2023-07-31T05:42:50;4.70;;;3.33;;
7899;SDS011;3995;50.856;4.404;2023-07-31T05:45:17;5.30;;;3.23;;
7899;SDS011;3995;50.856;4.404;2023-07-31T05:47:45;6.57;;;3.47;;
7899;SDS011;3995;50.856;4.404;2023-07-31T05:50:12;6.03;;;3.40;;
7899;SDS011;3995;50.856;4.404;2023-07-31T05:52:40;6.93;;;3.27;;
7899;SDS011;3995;50.856;4.404;2023-07-31T05:55:08;8.67;;;4.00;;
7899;SDS011;3995;50.856;4.404;2023-07-31T05:57:35;5.23;;;3.20;;
7899;SDS011;3995;50.856;4.404;2023-07-31T06:00:05;7.30;;;3.30;;
7899;SDS011;3995;50.856;4.404;2023-07-31T06:02:34;7.10;;;3.50;;
7899;SDS011;3995;50.856;4.404;2023-07-31T06:05:02;9.20;;;3.30;;
7899;SDS011;3995;50.856;4.404;2023-07-31T06:07:31;6.60;;;3.90;;
7899;SDS011;3995;50.856;4.404;2023-07-31T06:09:58;11.07;;;3.50;;
7899;SDS011;3995;50.856;4.404;2023-07-31T06:12:29;6.60;;;3.77;;
7899;SDS011;3995;50.856;4.404;2023-07-31T06:14:57;6.27;;;3.43;;
7899;SDS011;3995;50.856;4.404;2023-07-31T06:17:26;5.03;;;3.07;;
7899;SDS011;3995;50.856;4.404;2023-07-31T06:19:54;5.80;;;3.00;;
7899;SDS011;3995;50.856;4.404;2023-07-31T06:22:21;8.67;;;3.23;;
7899;SDS011;3995;50.856;4.404;2023-07-31T06:24:49;7.53;;;3.37;;
7899;SDS011;3995;50.856;4.404;2023-07-31T06:27:16;6.80;;;3.40;;
7899;SDS011;3995;50.856;4.404;2023-07-31T06:29:44;10.03;;;3.60;;
7899;SDS011;3995;50.856;4.404;2023-07-31T06:32:11;7.10;;;3.07;;
7899;SDS011;3995;50.856;4.404;2023-07-31T06:34:40;9.93;;;3.47;;
7899;SDS011;3995;50.856;4.404;2023-07-31T06:37:07;7.03;;;3.20;;
7899;SDS011;3995;50.856;4.404;2023-07-31T06:39:35;7.10;;;3.27;;
7899;SDS011;3995;50.856;4.404;2023-07-31T06:42:02;8.07;;;3.50;;
7899;SDS011;3995;50.856;4.404;2023-07-31T06:44:30;16.10;;;4.00;;
7899;SDS011;3995;50.856;4.404;2023-07-31T06:46:57;10.83;;;3.87;;
7899;SDS011;3995;50.856;4.404;2023-07-31T06:49:24;5.67;;;3.50;;
7899;SDS011;3995;50.856;4.404;2023-07-31T06:51:53;6.03;;;3.53;;
7899;SDS011;3995;50.856;4.404;2023-07-31T06:54:20;6.83;;;3.70;;
7899;SDS011;3995;50.856;4.404;2023-07-31T06:56:47;9.83;;;4.03;;
7899;SDS011;3995;50.856;4.404;2023-07-31T06:59:15;5.47;;;3.23;;
7899;SDS011;3995;50.856;4.404;2023-07-31T07:01:42;7.50;;;3.87;;
7899;SDS011;3995;50.856;4.404;2023-07-31T07:04:09;7.77;;;3.63;;
7899;SDS011;3995;50.856;4.404;2023-07-31T07:06:37;7.33;;;3.23;;
7899;SDS011;3995;50.856;4.404;2023-07-31T07:09:06;4.77;;;2.60;;
7899;SDS011;3995;50.856;4.404;2023-07-31T07:11:33;5.83;;;2.80;;
7899;SDS011;3995;50.856;4.404;2023-07-31T07:14:02;10.37;;;3.87;;
7899;SDS011;3995;50.856;4.404;2023-07-31T07:16:30;8.17;;;3.40;;
7899;SDS011;3995;50.856;4.404;2023-07-31T07:18:57;7.17;;;3.23;;
7899;SDS011;3995;50.856;4.404;2023-07-31T07:21:24;9.77;;;3.70;;
7899;SDS011;3995;50.856;4.404;2023-07-31T07:23:52;7.27;;;3.60;;
7899;SDS011;3995;50.856;4.404;2023-07-31T07:26:21;8.37;;;3.80;;
7899;SDS011;3995;50.856;4.404;2023-07-31T07:28:48;8.87;;;3.20;;
7899;SDS011;3995;50.856;4.404;2023-07-31T07:31:16;10.13;;;3.47;;
7899;SDS011;3995;50.856;4.404;2023-07-31T07:33:43;7.43;;;3.63;;
7899;SDS011;3995;50.856;4.404;2023-07-31T07:36:10;6.53;;;3.23;;
7899;SDS011;3995;50.856;4.404;2023-07-31T07:38:38;5.60;;;3.20;;
7899;SDS011;3995;50.856;4.404;2023-07-31T07:41:06;4.90;;;3.00;;
7899;SDS011;3995;50.856;4.404;2023-07-31T07:43:36;5.00;;;3.00;;
7899;SDS011;3995;50.856;4.404;2023-07-31T07:46:03;9.50;;;3.23;;
7899;SDS011;3995;50.856;4.404;2023-07-31T07:48:31;5.17;;;3.33;;
7899;SDS011;3995;50.856;4.404;2023-07-31T07:50:58;4.87;;;2.93;;
7899;SDS011;3995;50.856;4.404;2023-07-31T07:53:26;7.40;;;3.00;;
7899;SDS011;3995;50.856;4.404;2023-07-31T07:55:53;6.87;;;3.30;;
7899;SDS011;3995;50.856;4.404;2023-07-31T07:58:20;9.70;;;3.87;;
7899;SDS011;3995;50.856;4.404;2023-07-31T08:00:49;6.17;;;3.23;;
7899;SDS011;3995;50.856;4.404;2023-07-31T08:03:17;8.43;;;3.93;;
7899;SDS011;3995;50.856;4.404;2023-07-31T08:05:45;5.47;;;3.20;;
7899;SDS011;3995;50.856;4.404;2023-07-31T08:08:14;4.83;;;3.13;;
7899;SDS011;3995;50.856;4.404;2023-07-31T08:10:42;5.57;;;3.47;;
7899;SDS011;3995;50.856;4.404;2023-07-31T08:13:14;10.70;;;3.20;;
7899;SDS011;3995;50.856;4.404;2023-07-31T08:15:42;7.43;;;3.73;;
7899;SDS011;3995;50.856;4.404;2023-07-31T08:18:12;6.30;;;3.20;;
7899;SDS011;3995;50.856;4.404;2023-07-31T08:20:41;5.07;;;2.77;;
7899;SDS011;3995;50.856;4.404;2023-07-31T08:23:14;8.33;;;3.50;;
7899;SDS011;3995;50.856;4.404;2023-07-31T08:25:41;10.20;;;4.00;;
7899;SDS011;3995;50.856;4.404;2023-07-31T08:28:11;5.37;;;3.00;;
7899;SDS011;3995;50.856;4.404;2023-07-31T08:30:39;14.50;;;3.50;;
7899;SDS011;3995;50.856;4.404;2023-07-31T08:33:06;7.40;;;2.90;;
7899;SDS011;3995;50.856;4.404;2023-07-31T08:35:36;6.90;;;3.10;;
7899;SDS011;3995;50.856;4.404;2023-07-31T08:38:03;7.87;;;3.20;;
7899;SDS011;3995;50.856;4.404;2023-07-31T08:40:31;5.93;;;2.93;;
7899;SDS011;3995;50.856;4.404;2023-07-31T08:42:58;9.67;;;3.53;;
7899;SDS011;3995;50.856;4.404;2023-07-31T08:45:27;14.33;;;3.10;;
7899;SDS011;3995;50.856;4.404;2023-07-31T08:47:56;5.07;;;3.37;;
7899;SDS011;3995;50.856;4.404;2023-07-31T08:50:23;6.43;;;3.07;;
7899;SDS011;3995;50.856;4.404;2023-07-31T08:52:52;5.40;;;3.07;;
7899;SDS011;3995;50.856;4.404;2023-07-31T08:55:20;7.33;;;3.40;;
7899;SDS011;3995;50.856;4.404;2023-07-31T08:57:50;6.30;;;3.57;;
7899;SDS011;3995;50.856;4.404;2023-07-31T09:00:18;4.50;;;3.30;;
7899;SDS011;3995;50.856;4.404;2023-07-31T09:02:51;5.10;;;2.80;;
7899;SDS011;3995;50.856;4.404;2023-07-31T09:05:23;9.77;;;4.03;;
7899;SDS011;3995;50.856;4.404;2023-07-31T09:07:54;8.30;;;3.17;;
7899;SDS011;3995;50.856;4.404;2023-07-31T09:10:22;7.10;;;3.33;;
7899;SDS011;3995;50.856;4.404;2023-07-31T09:12:51;6.80;;;3.40;;
7899;SDS011;3995;50.856;4.404;2023-07-31T09:15:18;8.13;;;3.50;;
7899;SDS011;3995;50.856;4.404;2023-07-31T09:17:46;9.77;;;4.00;;
7899;SDS011;3995;50.856;4.404;2023-07-31T09:20:14;4.97;;;3.13;;
7899;SDS011;3995;50.856;4.404;2023-07-31T09:22:43;14.17;;;4.80;;
7899;SDS011;3995;50.856;4.404;2023-07-31T09:25:15;5.73;;;3.53;;
7899;SDS011;3995;50.856;4.404;2023-07-31T09:27:45;6.40;;;3.50;;
7899;SDS011;3995;50.856;4.404;2023-07-31T09:30:13;9.43;;;3.60;;
7899;SDS011;3995;50.856;4.404;2023-07-31T09:32:42;7.83;;;3.47;;
7899;SDS011;3995;50.856;4.404;2023-07-31T09:37:55;14.60;;;3.30;;
7899;SDS011;3995;50.856;4.404;2023-07-31T09:40:26;4.90;;;3.43;;
7899;SDS011;3995;50.856;4.404;2023-07-31T09:42:58;6.03;;;3.93;;
7899;SDS011;3995;50.856;4.404;2023-07-31T09:45:26;5.13;;;3.03;;
7899;SDS011;3995;50.856;4.404;2023-07-31T09:47:54;5.70;;;2.80;;
7899;SDS011;3995;50.856;4.404;2023-07-31T09:50:23;5.80;;;3.80;;
7899;SDS011;3995;50.856;4.404;2023-07-31T09:52:51;4.53;;;3.17;;
7899;SDS011;3995;50.856;4.404;2023-07-31T09:55:19;13.23;;;3.97;;
7899;SDS011;3995;50.856;4.404;2023-07-31T09:57:48;5.27;;;3.43;;
7899;SDS011;3995;50.856;4.404;2023-07-31T10:00:16;6.23;;;3.90;;
7899;SDS011;3995;50.856;4.404;2023-07-31T10:02:47;8.63;;;4.80;;
7899;SDS011;3995;50.856;4.404;2023-07-31T10:05:16;5.97;;;3.63;;
7899;SDS011;3995;50.856;4.404;2023-07-31T10:07:45;7.50;;;3.77;;
7899;SDS011;3995;50.856;4.404;2023-07-31T10:10:19;6.33;;;3.47;;
7899;SDS011;3995;50.856;4.404;2023-07-31T10:12:49;6.30;;;4.00;;
7899;SDS011;3995;50.856;4.404;2023-07-31T10:15:18;6.20;;;3.87;;
7899;SDS011;3995;50.856;4.404;2023-07-31T10:17:47;9.63;;;4.10;;
7899;SDS011;3995;50.856;4.404;2023-07-31T10:20:16;7.50;;;4.10;;
7899;SDS011;3995;50.856;4.404;2023-07-31T10:22:44;7.27;;;4.03;;
7899;SDS011;3995;50.856;4.404;2023-07-31T10:25:13;7.80;;;4.60;;
7899;SDS011;3995;50.856;4.404;2023-07-31T10:27:41;10.43;;;4.90;;
7899;SDS011;3995;50.856;4.404;2023-07-31T10:30:12;8.73;;;4.70;;
7899;SDS011;3995;50.856;4.404;2023-07-31T10:32:41;10.17;;;4.90;;
7899;SDS011;3995;50.856;4.404;2023-07-31T10:35:11;6.20;;;4.00;;
7899;SDS011;3995;50.856;4.404;2023-07-31T10:37:40;7.50;;;3.87;;
7899;SDS011;3995;50.856;4.404;2023-07-31T10:40:10;7.60;;;4.00;;
7899;SDS011;3995;50.856;4.404;2023-07-31T10:42:38;12.70;;;4.60;;
7899;SDS011;3995;50.856;4.404;2023-07-31T10:45:23;9.13;;;4.43;;
7899;SDS011;3995;50.856;4.404;2023-07-31T10:47:57;6.63;;;4.03;;
7899;SDS011;3995;50.856;4.404;2023-07-31T10:50:26;7.60;;;4.40;;
7899;SDS011;3995;50.856;4.404;2023-07-31T10:52:54;7.60;;;4.10;;
7899;SDS011;3995;50.856;4.404;2023-07-31T10:55:27;7.57;;;4.00;;
7899;SDS011;3995;50.856;4.404;2023-07-31T10:57:56;8.07;;;4.73;;
7899;SDS011;3995;50.856;4.404;2023-07-31T11:00:27;5.67;;;4.03;;
7899;SDS011;3995;50.856;4.404;2023-07-31T11:03:04;8.87;;;4.40;;
7899;SDS011;3995;50.856;4.404;2023-07-31T11:05:45;8.07;;;4.47;;
7899;SDS011;3995;50.856;4.404;2023-07-31T11:08:19;9.03;;;4.50;;
7899;SDS011;3995;50.856;4.404;2023-07-31T11:10:48;11.80;;;4.73;;
7899;SDS011;3995;50.856;4.404;2023-07-31T11:13:17;7.33;;;4.57;;
7899;SDS011;3995;50.856;4.404;2023-07-31T11:15:46;10.83;;;4.20;;
7899;SDS011;3995;50.856;4.404;2023-07-31T11:18:14;9.53;;;4.37;;
7899;SDS011;3995;50.856;4.404;2023-07-31T11:20:42;11.80;;;3.50;;
7899;SDS011;3995;50.856;4.404;2023-07-31T11:23:10;8.83;;;4.47;;
7899;SDS011;3995;50.856;4.404;2023-07-31T11:25:39;7.60;;;3.80;;
7899;SDS011;3995;50.856;4.404;2023-07-31T11:28:07;10.53;;;4.13;;
7899;SDS011;3995;50.856;4.404;2023-07-31T11:30:37;14.30;;;4.73;;
7899;SDS011;3995;50.856;4.404;2023-07-31T11:33:08;8.77;;;4.13;;
7899;SDS011;3995;50.856;4.404;2023-07-31T11:35:40;9.87;;;4.20;;
7899;SDS011;3995;50.856;4.404;2023-07-31T11:38:11;9.60;;;4.67;;
7899;SDS011;3995;50.856;4.404;2023-07-31T11:40:42;10.73;;;4.60;;
7899;SDS011;3995;50.856;4.404;2023-07-31T11:43:11;4.83;;;3.90;;
7899;SDS011;3995;50.856;4.404;2023-07-31T11:45:42;8.43;;;4.30;;
7899;SDS011;3995;50.856;4.404;2023-07-31T11:48:20;6.77;;;3.67;;
7899;SDS011;3995;50.856;4.404;2023-07-31T11:50:49;10.97;;;4.50;;
7899;SDS011;3995;50.856;4.404;2023-07-31T11:53:18;7.40;;;4.90;;
7899;SDS011;3995;50.856;4.404;2023-07-31T11:55:52;10.67;;;4.00;;
7899;SDS011;3995;50.856;4.404;2023-07-31T11:58:20;13.73;;;5.60;;
7899;SDS011;3995;50.856;4.404;2023-07-31T12:00:47;10.13;;;4.60;;
7899;SDS011;3995;50.856;4.404;2023-07-31T12:03:15;8.47;;;4.30;;
7899;SDS011;3995;50.856;4.404;2023-07-31T12:05:45;7.60;;;3.97;;
7899;SDS011;3995;50.856;4.404;2023-07-31T12:08:14;6.47;;;4.00;;
7899;SDS011;3995;50.856;4.404;2023-07-31T12:10:41;9.10;;;4.13;;
7899;SDS011;3995;50.856;4.404;2023-07-31T12:13:12;9.40;;;4.50;;
7899;SDS011;3995;50.856;4.404;2023-07-31T12:15:47;8.43;;;4.20;;
7899;SDS011;3995;50.856;4.404;2023-07-31T12:18:15;9.87;;;4.80;;
7899;SDS011;3995;50.856;4.404;2023-07-31T12:20:48;7.07;;;4.40;;
7899;SDS011;3995;50.856;4.404;2023-07-31T12:23:21;8.73;;;4.50;;
7899;SDS011;3995;50.856;4.404;2023-07-31T12:25:59;7.67;;;4.03;;
7899;SDS011;3995;50.856;4.404;2023-07-31T12:28:28;8.50;;;4.17;;
7899;SDS011;3995;50.856;4.404;2023-07-31T12:30:56;9.30;;;4.67;;
7899;SDS011;3995;50.856;4.404;2023-07-31T12:33:29;12.37;;;4.97;;
7899;SDS011;3995;50.856;4.404;2023-07-31T12:36:00;9.73;;;4.60;;
7899;SDS011;3995;50.856;4.404;2023-07-31T12:38:29;10.87;;;4.87;;
7899;SDS011;3995;50.856;4.404;2023-07-31T12:40:56;7.87;;;4.43;;
7899;SDS011;3995;50.856;4.404;2023-07-31T12:43:24;7.50;;;4.37;;
7899;SDS011;3995;50.856;4.404;2023-07-31T12:45:51;7.23;;;3.80;;
7899;SDS011;3995;50.856;4.404;2023-07-31T12:48:20;7.97;;;4.47;;
7899;SDS011;3995;50.856;4.404;2023-07-31T12:50:48;8.60;;;4.50;;
7899;SDS011;3995;50.856;4.404;2023-07-31T12:53:17;9.63;;;4.77;;
7899;SDS011;3995;50.856;4.404;2023-07-31T12:55:44;5.67;;;3.40;;
7899;SDS011;3995;50.856;4.404;2023-07-31T12:58:11;6.90;;;4.00;;
7899;SDS011;3995;50.856;4.404;2023-07-31T13:00:39;7.70;;;4.10;;
7899;SDS011;3995;50.856;4.404;2023-07-31T13:03:06;7.60;;;3.67;;
7899;SDS011;3995;50.856;4.404;2023-07-31T13:05:34;7.23;;;3.90;;
7899;SDS011;3995;50.856;4.404;2023-07-31T13:08:02;8.30;;;4.10;;
7899;SDS011;3995;50.856;4.404;2023-07-31T13:10:31;6.13;;;3.80;;
7899;SDS011;3995;50.856;4.404;2023-07-31T13:12:59;7.40;;;3.70;;
7899;SDS011;3995;50.856;4.404;2023-07-31T13:15:26;14.50;;;3.93;;
7899;SDS011;3995;50.856;4.404;2023-07-31T13:17:54;8.10;;;3.97;;
7899;SDS011;3995;50.856;4.404;2023-07-31T13:20:22;6.37;;;3.10;;
7899;SDS011;3995;50.856;4.404;2023-07-31T13:22:49;4.90;;;2.87;;
7899;SDS011;3995;50.856;4.404;2023-07-31T13:25:16;7.33;;;3.27;;
7899;SDS011;3995;50.856;4.404;2023-07-31T13:27:45;6.30;;;3.60;;
7899;SDS011;3995;50.856;4.404;2023-07-31T13:30:13;4.77;;;3.20;;
7899;SDS011;3995;50.856;4.404;2023-07-31T13:32:41;17.63;;;3.80;;
7899;SDS011;3995;50.856;4.404;2023-07-31T13:35:08;10.40;;;2.80;;
7899;SDS011;3995;50.856;4.404;2023-07-31T13:37:36;6.60;;;3.33;;
7899;SDS011;3995;50.856;4.404;2023-07-31T13:40:05;7.23;;;3.40;;
7899;SDS011;3995;50.856;4.404;2023-07-31T13:42:33;4.43;;;2.60;;
7899;SDS011;3995;50.856;4.404;2023-07-31T13:45:02;5.40;;;2.90;;
7899;SDS011;3995;50.856;4.404;2023-07-31T13:47:30;10.03;;;3.10;;
7899;SDS011;3995;50.856;4.404;2023-07-31T13:49:59;5.43;;;3.27;;
7899;SDS011;3995;50.856;4.404;2023-07-31T13:52:27;7.70;;;2.93;;
7899;SDS011;3995;50.856;4.404;2023-07-31T13:54:54;6.10;;;3.40;;
7899;SDS011;3995;50.856;4.404;2023-07-31T13:57:22;7.30;;;3.33;;
7899;SDS011;3995;50.856;4.404;2023-07-31T13:59:50;7.70;;;3.53;;
7899;SDS011;3995;50.856;4.404;2023-07-31T14:02:19;6.63;;;2.90;;
7899;SDS011;3995;50.856;4.404;2023-07-31T14:04:46;5.20;;;3.00;;
7899;SDS011;3995;50.856;4.404;2023-07-31T14:07:14;4.30;;;3.17;;
7899;SDS011;3995;50.856;4.404;2023-07-31T14:09:42;6.00;;;2.60;;
7899;SDS011;3995;50.856;4.404;2023-07-31T14:12:10;6.63;;;3.00;;
7899;SDS011;3995;50.856;4.404;2023-07-31T14:14:38;5.93;;;2.80;;
7899;SDS011;3995;50.856;4.404;2023-07-31T14:17:05;5.80;;;2.80;;
7899;SDS011;3995;50.856;4.404;2023-07-31T14:19:35;3.73;;;2.73;;
7899;SDS011;3995;50.856;4.404;2023-07-31T14:22:03;6.30;;;3.10;;
7899;SDS011;3995;50.856;4.404;2023-07-31T14:24:31;5.17;;;3.00;;
7899;SDS011;3995;50.856;4.404;2023-07-31T14:26:59;7.60;;;3.57;;
7899;SDS011;3995;50.856;4.404;2023-07-31T14:29:26;7.83;;;3.10;;
7899;SDS011;3995;50.856;4.404;2023-07-31T14:31:54;6.13;;;3.43;;
7899;SDS011;3995;50.856;4.404;2023-07-31T14:34:21;6.20;;;3.23;;
7899;SDS011;3995;50.856;4.404;2023-07-31T14:36:50;6.50;;;3.07;;
7899;SDS011;3995;50.856;4.404;2023-07-31T14:39:17;4.50;;;2.60;;
7899;SDS011;3995;50.856;4.404;2023-07-31T14:41:45;4.20;;;2.83;;
7899;SDS011;3995;50.856;4.404;2023-07-31T14:44:13;4.47;;;2.43;;
7899;SDS011;3995;50.856;4.404;2023-07-31T14:46:40;4.50;;;2.73;;
7899;SDS011;3995;50.856;4.404;2023-07-31T14:49:07;5.70;;;2.50;;
7899;SDS011;3995;50.856;4.404;2023-07-31T14:51:34;2.70;;;2.17;;
7899;SDS011;3995;50.856;4.404;2023-07-31T14:54:03;4.43;;;2.20;;
7899;SDS011;3995;50.856;4.404;2023-07-31T14:56:31;3.13;;;2.10;;
7899;SDS011;3995;50.856;4.404;2023-07-31T14:58:59;3.00;;;2.20;;
7899;SDS011;3995;50.856;4.404;2023-07-31T15:01:26;4.10;;;2.70;;
7899;SDS011;3995;50.856;4.404;2023-07-31T15:03:54;2.93;;;2.37;;
7899;SDS011;3995;50.856;4.404;2023-07-31T15:06:22;2.93;;;1.80;;
7899;SDS011;3995;50.856;4.404;2023-07-31T15:08:49;5.50;;;2.40;;
7899;SDS011;3995;50.856;4.404;2023-07-31T15:11:18;4.50;;;1.97;;
7899;SDS011;3995;50.856;4.404;2023-07-31T15:13:45;4.30;;;2.20;;
7899;SDS011;3995;50.856;4.404;2023-07-31T15:16:12;2.47;;;1.77;;
7899;SDS011;3995;50.856;4.404;2023-07-31T15:18:40;3.60;;;1.93;;
7899;SDS011;3995;50.856;4.404;2023-07-31T15:21:07;3.00;;;1.90;;
7899;SDS011;3995;50.856;4.404;2023-07-31T15:23:35;2.97;;;1.40;;